Terminal Aerodrome Forecast
Issued by NWS Tampa Bay Area, FL

Home | Current Version | Previous Version | Text Only | Print | Product List | Glossary On
Versions: 1 2 3 4 5 6 7 8 9 10 11 12 13 14 15 16 17 18 19 20 21 22 23 24 25 26 27 28 29
000
FTUS42 KTBW 021400 AAA
TAFTPA
TAF AMD
KTPA 021455Z 0215/0312 VRB03KT P6SM SCT020 BKN120
     FM021800 29006KT P6SM VCTS SCT035CB BKN120
     FM030000 35004KT P6SM FEW035 SCT120 SCT250
     FM030300 04004KT P6SM SCT025 SCT250=

USA.gov is the U.S. government's official web portal to all federal, state and local government web resources and services.